createdAt,value
2023-04-22T00:00:45.694Z,11.16
2023-04-22T00:03:12.794Z,11.40
2023-04-22T00:05:40.025Z,11.29
2023-04-22T00:08:06.829Z,11.34
2023-04-22T00:10:33.796Z,11.28
2023-04-22T00:13:00.594Z,11.18
2023-04-22T00:15:27.785Z,11.24
2023-04-22T00:17:54.733Z,11.38
2023-04-22T00:20:22.285Z,11.27
2023-04-22T00:22:49.122Z,11.32
2023-04-22T00:25:16.712Z,11.25
2023-04-22T00:27:43.800Z,10.99
2023-04-22T00:30:11.228Z,10.99
2023-04-22T00:32:38.742Z,11.01
2023-04-22T00:35:06.140Z,11.17
2023-04-22T00:37:32.908Z,10.97
2023-04-22T00:39:59.679Z,10.85
2023-04-22T00:42:26.809Z,10.75
2023-04-22T00:44:53.728Z,10.79
2023-04-22T00:47:21.236Z,10.77
2023-04-22T00:49:49.653Z,10.83
2023-04-22T00:52:16.316Z,10.62
2023-04-22T00:54:43.127Z,10.59
2023-04-22T00:57:09.834Z,10.47
2023-04-22T00:59:36.996Z,10.54
2023-04-22T01:02:04.376Z,10.49
2023-04-22T01:04:31.681Z,10.53
2023-04-22T01:06:59.769Z,10.52
2023-04-22T01:09:26.500Z,10.26
2023-04-22T01:11:53.269Z,10.21
2023-04-22T01:14:20.320Z,10.40
2023-04-22T01:16:50.591Z,10.19
2023-04-22T01:19:17.821Z,10.32
2023-04-22T01:21:47.532Z,10.18
2023-04-22T01:24:14.273Z,10.22
2023-04-22T01:26:41.373Z,10.23
2023-04-22T01:29:08.395Z,10.19
2023-04-22T01:31:35.386Z,10.24
2023-04-22T01:34:02.282Z,10.28
2023-04-22T01:36:29.204Z,10.12
2023-04-22T01:38:56.555Z,10.21
2023-04-22T01:41:23.677Z,10.20
2023-04-22T01:43:51.725Z,10.23
2023-04-22T01:46:18.662Z,10.30
2023-04-22T01:48:50.704Z,10.25
2023-04-22T01:51:18.631Z,10.22
2023-04-22T01:53:45.494Z,10.36
2023-04-22T01:56:12.572Z,10.32
2023-04-22T01:58:39.989Z,10.27
2023-04-22T02:01:09.037Z,10.21
2023-04-22T02:03:36.349Z,10.37
2023-04-22T02:06:03.560Z,10.25
2023-04-22T02:08:30.701Z,10.24
2023-04-22T02:10:59.375Z,10.03
2023-04-22T02:13:26.084Z,10.10
2023-04-22T02:15:53.043Z,10.13
2023-04-22T02:18:19.958Z,10.24
2023-04-22T02:20:46.633Z,10.15
2023-04-22T02:23:13.470Z,10.34
2023-04-22T02:25:40.796Z,10.23
2023-04-22T02:28:07.557Z,10.19
2023-04-22T02:30:34.396Z,10.33
2023-04-22T02:33:02.025Z,10.21
2023-04-22T02:35:28.833Z,10.26
2023-04-22T02:37:55.658Z,10.18
2023-04-22T02:40:22.682Z,10.37
2023-04-22T02:42:49.448Z,10.39
2023-04-22T02:45:16.318Z,10.32
2023-04-22T02:47:43.242Z,10.28
2023-04-22T02:50:10.763Z,10.39
2023-04-22T02:52:37.487Z,10.25
2023-04-22T02:55:04.592Z,10.34
2023-04-22T02:57:31.407Z,10.37
2023-04-22T02:59:58.163Z,10.38
2023-04-22T03:02:25.162Z,10.19
2023-04-22T03:04:54.670Z,10.42
2023-04-22T03:07:21.428Z,10.38
2023-04-22T03:09:48.239Z,10.21
2023-04-22T03:12:15.011Z,10.17
2023-04-22T03:14:41.667Z,10.09
2023-04-22T03:17:08.802Z,10.21
2023-04-22T03:19:35.574Z,10.23
2023-04-22T03:22:02.702Z,10.22
2023-04-22T03:24:29.384Z,10.17
2023-04-22T03:26:56.146Z,10.31
2023-04-22T03:29:22.870Z,10.37
2023-04-22T03:31:49.986Z,10.32
2023-04-22T03:34:17.670Z,10.46
2023-04-22T03:36:44.335Z,10.39
2023-04-22T03:39:11.142Z,10.49
2023-04-22T03:41:37.824Z,10.50
2023-04-22T03:44:04.590Z,10.51
2023-04-22T03:46:32.286Z,10.45
2023-04-22T03:48:59.138Z,10.45
2023-04-22T03:51:26.225Z,10.63
2023-04-22T03:53:53.176Z,10.53
2023-04-22T03:56:19.957Z,10.72
2023-04-22T03:58:46.685Z,10.67
2023-04-22T04:01:13.412Z,10.63
2023-04-22T04:03:40.220Z,10.61
2023-04-22T04:06:07.607Z,10.54
2023-04-22T04:08:34.312Z,10.57
2023-04-22T04:11:01.269Z,10.53
2023-04-22T04:13:32.779Z,10.58
2023-04-22T04:16:00.607Z,10.50
2023-04-22T04:18:30.596Z,10.49
2023-04-22T04:20:57.517Z,10.66
2023-04-22T04:23:24.310Z,10.56
2023-04-22T04:25:52.518Z,10.48
2023-04-22T04:28:19.638Z,10.37
2023-04-22T04:30:46.492Z,10.49
2023-04-22T04:33:13.556Z,10.53
2023-04-22T04:35:41.909Z,10.53
2023-04-22T04:38:09.119Z,10.45
2023-04-22T04:40:37.486Z,10.55
2023-04-22T04:43:08.710Z,10.45
2023-04-22T04:45:37.059Z,10.50
2023-04-22T04:48:04.239Z,10.79
2023-04-22T04:50:32.084Z,10.78
2023-04-22T04:52:58.857Z,10.84
2023-04-22T04:55:25.655Z,10.88
2023-04-22T04:57:52.385Z,11.01
2023-04-22T05:00:19.446Z,11.05
2023-04-22T05:02:46.480Z,11.17
2023-04-22T05:05:13.717Z,11.16
2023-04-22T05:07:40.438Z,11.25
2023-04-22T05:10:07.752Z,11.30
2023-04-22T05:12:34.572Z,11.46
2023-04-22T05:15:01.965Z,11.46
2023-04-22T05:17:29.129Z,11.55
2023-04-22T05:19:55.926Z,11.58
2023-04-22T05:22:22.966Z,11.55
2023-04-22T05:24:49.893Z,11.84
2023-04-22T05:27:17.016Z,11.87
2023-04-22T05:29:43.788Z,11.98
2023-04-22T05:32:10.703Z,12.03
2023-04-22T05:34:37.881Z,12.19
2023-04-22T05:37:04.643Z,12.32
2023-04-22T05:39:31.837Z,12.42
2023-04-22T05:41:59.128Z,12.52
2023-04-22T05:44:25.994Z,12.77
2023-04-22T05:46:52.807Z,12.88
2023-04-22T05:49:19.579Z,13.00
2023-04-22T05:51:46.869Z,13.15
2023-04-22T05:54:13.651Z,13.25
2023-04-22T05:56:40.453Z,13.40
2023-04-22T05:59:07.230Z,13.49
2023-04-22T06:01:33.998Z,13.66
2023-04-22T06:04:01.090Z,13.71
2023-04-22T06:06:28.073Z,13.78
2023-04-22T06:08:55.047Z,13.85
2023-04-22T06:11:22.662Z,13.91
2023-04-22T06:13:49.705Z,13.99
2023-04-22T06:16:16.747Z,14.16
2023-04-22T06:18:46.697Z,14.23
2023-04-22T06:21:13.471Z,14.28
2023-04-22T06:23:40.307Z,14.35
2023-04-22T06:26:07.349Z,14.47
2023-04-22T06:28:34.194Z,14.66
2023-04-22T06:31:02.795Z,14.81
2023-04-22T06:33:29.618Z,14.87
2023-04-22T06:35:57.818Z,14.96
2023-04-22T06:38:25.493Z,15.00
2023-04-22T06:40:52.596Z,15.01
2023-04-22T06:43:19.315Z,15.22
2023-04-22T06:45:46.207Z,15.24
2023-04-22T06:48:13.463Z,15.27
2023-04-22T06:50:40.197Z,15.25
2023-04-22T06:53:07.183Z,15.32
2023-04-22T06:55:34.175Z,15.36
2023-04-22T06:58:01.723Z,15.41
2023-04-22T07:00:29.545Z,15.51
2023-04-22T07:02:56.455Z,15.61
2023-04-22T07:05:24.910Z,15.71
2023-04-22T07:07:51.851Z,15.80
2023-04-22T07:10:18.711Z,15.88
2023-04-22T07:12:46.077Z,15.87
2023-04-22T07:15:12.802Z,15.85
2023-04-22T07:17:39.592Z,16.01
2023-04-22T07:20:07.907Z,16.13
2023-04-22T07:22:34.731Z,16.22
2023-04-22T07:25:01.895Z,16.28
2023-04-22T07:27:28.941Z,16.41
2023-04-22T07:29:55.872Z,16.56
2023-04-22T07:32:23.061Z,16.55
2023-04-22T07:34:50.168Z,16.52
2023-04-22T07:37:16.941Z,16.62
2023-04-22T07:39:43.662Z,16.70
2023-04-22T07:42:10.518Z,16.82
2023-04-22T07:44:39.423Z,16.95
2023-04-22T07:47:08.711Z,17.16
2023-04-22T07:49:36.090Z,17.27
2023-04-22T07:52:02.988Z,17.41
2023-04-22T07:54:29.781Z,17.46
2023-04-22T07:56:58.546Z,17.53
2023-04-22T07:59:25.464Z,17.45
2023-04-22T08:01:52.296Z,17.52
2023-04-22T08:04:23.024Z,17.62
2023-04-22T08:06:49.999Z,17.73
2023-04-22T08:09:16.708Z,17.77
2023-04-22T08:11:43.473Z,17.85
2023-04-22T08:14:10.504Z,17.93
2023-04-22T08:16:38.533Z,18.12
2023-04-22T08:19:05.732Z,18.18
2023-04-22T08:21:33.387Z,18.33
2023-04-22T08:24:00.240Z,18.41
2023-04-22T08:26:27.528Z,18.44
2023-04-22T08:28:54.404Z,18.49
2023-04-22T08:31:21.991Z,18.67
2023-04-22T08:33:48.999Z,18.73
2023-04-22T08:36:16.502Z,18.74
2023-04-22T08:38:43.258Z,18.80
2023-04-22T08:41:10.342Z,18.93
2023-04-22T08:43:37.173Z,18.96
2023-04-22T08:46:03.947Z,19.00
2023-04-22T08:48:31.038Z,19.09
2023-04-22T08:50:58.185Z,19.22
2023-04-22T08:53:25.226Z,19.23
2023-04-22T08:55:52.561Z,19.38
2023-04-22T08:58:19.514Z,19.51
2023-04-22T09:00:46.247Z,19.51
2023-04-22T09:03:14.076Z,19.58
2023-04-22T09:05:41.582Z,19.49
2023-04-22T09:08:08.836Z,19.65
2023-04-22T09:10:39.419Z,19.83
2023-04-22T09:13:07.056Z,19.83
2023-04-22T09:15:34.868Z,20.05
2023-04-22T09:18:03.381Z,20.03
2023-04-22T09:20:30.787Z,20.02
2023-04-22T09:22:58.897Z,20.13
2023-04-22T09:25:27.196Z,20.14
2023-04-22T09:27:56.561Z,20.17
2023-04-22T09:30:29.335Z,20.16
2023-04-22T09:33:04.791Z,20.21
2023-04-22T09:35:35.794Z,20.21
2023-04-22T09:38:04.661Z,20.29
2023-04-22T09:40:32.436Z,20.52
2023-04-22T09:43:03.121Z,20.60
2023-04-22T09:45:31.490Z,20.50
2023-04-22T09:48:02.965Z,20.59
2023-04-22T09:50:29.910Z,20.66
2023-04-22T09:52:59.560Z,20.57
2023-04-22T09:55:29.210Z,20.74
2023-04-22T09:57:57.519Z,20.92
2023-04-22T10:00:28.136Z,20.89
2023-04-22T10:02:55.060Z,20.98
2023-04-22T10:05:22.483Z,21.07
2023-04-22T10:07:49.335Z,21.22
2023-04-22T10:10:16.215Z,21.24
2023-04-22T10:12:43.322Z,21.26
2023-04-22T10:15:10.372Z,21.44
2023-04-22T10:17:39.117Z,21.47
2023-04-22T10:20:14.068Z,21.42
2023-04-22T10:22:43.052Z,21.47
2023-04-22T10:25:14.501Z,21.49
2023-04-22T10:27:41.474Z,21.57
2023-04-22T10:30:09.814Z,21.70
2023-04-22T10:32:37.268Z,21.60
2023-04-22T10:35:13.003Z,21.61
2023-04-22T10:37:43.670Z,21.67
2023-04-22T10:40:16.426Z,21.68
2023-04-22T10:42:51.631Z,21.77
2023-04-22T10:45:19.247Z,21.79
2023-04-22T10:47:46.473Z,21.92
2023-04-22T10:50:22.522Z,22.13
2023-04-22T10:52:52.048Z,22.18
2023-04-22T10:55:19.648Z,22.26
2023-04-22T10:57:48.073Z,22.26
2023-04-22T11:00:35.233Z,22.20
2023-04-22T11:03:11.219Z,22.26
2023-04-22T11:05:38.666Z,22.17
2023-04-22T11:08:25.778Z,22.20
2023-04-22T11:10:54.164Z,22.19
2023-04-22T11:13:21.978Z,22.20
2023-04-22T11:15:50.811Z,22.03
2023-04-22T11:18:25.411Z,21.86
2023-04-22T11:20:53.842Z,21.97
2023-04-22T11:23:24.454Z,22.08
2023-04-22T11:25:59.195Z,22.18
2023-04-22T11:28:26.407Z,22.39
2023-04-22T11:30:54.007Z,22.42
2023-04-22T11:33:21.023Z,22.42
2023-04-22T11:35:49.523Z,22.55
2023-04-22T11:38:16.363Z,22.52
2023-04-22T11:40:46.465Z,22.55
2023-04-22T11:43:14.237Z,22.63
2023-04-22T11:45:41.416Z,22.67
2023-04-22T11:48:11.297Z,22.69
2023-04-22T11:50:40.384Z,22.71
2023-04-22T11:53:21.223Z,22.92
2023-04-22T11:55:53.310Z,22.80
2023-04-22T11:58:25.049Z,22.86
2023-04-22T12:00:53.266Z,23.01
2023-04-22T12:03:28.620Z,23.19
2023-04-22T12:06:04.237Z,23.36
2023-04-22T12:08:34.016Z,23.36
2023-04-22T12:11:04.356Z,23.16
2023-04-22T12:13:34.480Z,23.11
2023-04-22T12:16:04.693Z,22.92
2023-04-22T12:18:38.372Z,22.91
2023-04-22T12:21:14.730Z,22.86
2023-04-22T12:23:45.996Z,22.82
2023-04-22T12:26:13.604Z,22.88
2023-04-22T12:28:41.784Z,22.80
2023-04-22T12:31:09.195Z,22.85
2023-04-22T12:33:37.467Z,22.87
2023-04-22T12:36:05.774Z,23.04
2023-04-22T12:38:33.012Z,23.17
2023-04-22T12:41:00.112Z,23.22
2023-04-22T12:43:27.201Z,23.20
2023-04-22T12:45:54.162Z,23.05
2023-04-22T12:48:21.341Z,23.13
2023-04-22T12:50:48.329Z,23.34
2023-04-22T12:53:15.708Z,23.49
2023-04-22T12:55:44.672Z,23.53
2023-04-22T12:58:12.787Z,23.68
2023-04-22T13:00:40.237Z,23.73
2023-04-22T13:03:07.367Z,23.75
2023-04-22T13:05:34.840Z,23.92
2023-04-22T13:08:06.979Z,23.81
2023-04-22T13:10:35.404Z,23.77
2023-04-22T13:15:34.947Z,23.64
2023-04-22T13:18:02.566Z,23.49
2023-04-22T13:20:29.348Z,23.44
2023-04-22T13:22:56.293Z,23.32
2023-04-22T13:25:23.283Z,23.44
2023-04-22T13:27:50.357Z,23.41
2023-04-22T13:30:17.106Z,23.48
2023-04-22T13:32:43.900Z,23.49
2023-04-22T13:35:11.316Z,23.53
2023-04-22T13:37:38.019Z,23.53
2023-04-22T13:40:06.496Z,23.43
2023-04-22T13:42:33.231Z,23.42
2023-04-22T13:45:00.166Z,23.40
2023-04-22T13:47:27.102Z,23.51
2023-04-22T13:49:54.009Z,23.59
2023-04-22T13:52:21.085Z,23.51
2023-04-22T13:54:47.917Z,23.44
2023-04-22T13:57:15.119Z,23.45
2023-04-22T13:59:42.378Z,23.32
2023-04-22T14:02:09.831Z,23.50
2023-04-22T14:04:36.676Z,23.40
2023-04-22T14:07:04.449Z,23.61
2023-04-22T14:09:31.474Z,23.56
2023-04-22T14:11:59.397Z,23.68
2023-04-22T14:14:26.246Z,23.84
2023-04-22T14:16:53.160Z,23.82
2023-04-22T14:19:20.482Z,23.64
2023-04-22T14:21:47.642Z,23.79
2023-04-22T14:24:14.761Z,23.69
2023-04-22T14:26:41.880Z,23.82
2023-04-22T14:29:08.715Z,24.10
2023-04-22T14:31:35.538Z,24.19
2023-04-22T14:34:02.329Z,24.27
2023-04-22T14:36:29.158Z,24.40
2023-04-22T14:38:56.991Z,24.16
2023-04-22T14:41:24.446Z,24.18
2023-04-22T14:43:51.270Z,24.25
2023-04-22T14:46:18.295Z,24.37
2023-04-22T14:48:45.187Z,24.32
2023-04-22T14:51:12.296Z,24.27
2023-04-22T14:53:39.384Z,24.44
2023-04-22T14:56:06.150Z,24.44
2023-04-22T14:58:32.932Z,24.39
2023-04-22T15:01:00.343Z,24.36
2023-04-22T15:03:27.606Z,24.30
2023-04-22T15:05:55.635Z,24.38
2023-04-22T15:08:25.610Z,24.59
2023-04-22T15:10:52.595Z,24.40
2023-04-22T15:13:20.252Z,24.23
2023-04-22T15:15:47.338Z,24.08
2023-04-22T15:18:14.560Z,23.92
2023-04-22T15:20:41.451Z,23.91
2023-04-22T15:23:08.341Z,23.68
2023-04-22T15:25:36.034Z,23.73
2023-04-22T15:28:04.337Z,23.64
2023-04-22T15:30:31.061Z,23.44
2023-04-22T15:32:58.013Z,23.30
2023-04-22T15:35:24.941Z,23.17
2023-04-22T15:37:52.974Z,23.13
2023-04-22T15:40:19.725Z,23.15
2023-04-22T15:42:46.727Z,22.99
2023-04-22T15:45:13.625Z,22.91
2023-04-22T15:47:40.919Z,22.80
2023-04-22T15:50:09.440Z,22.68
2023-04-22T15:52:38.151Z,22.58
2023-04-22T15:55:06.407Z,22.62
2023-04-22T15:57:35.392Z,22.57
2023-04-22T16:00:11.759Z,22.59
2023-04-22T16:02:40.517Z,22.46
2023-04-22T16:05:08.043Z,22.45
2023-04-22T16:07:35.162Z,22.32
2023-04-22T16:10:02.713Z,22.32
2023-04-22T16:12:30.931Z,22.22
2023-04-22T16:14:58.863Z,22.12
2023-04-22T16:17:25.708Z,21.95
2023-04-22T16:19:52.641Z,21.79
2023-04-22T16:22:19.535Z,21.75
2023-04-22T16:24:46.318Z,21.69
2023-04-22T16:27:17.282Z,21.65
2023-04-22T16:29:44.485Z,21.55
2023-04-22T16:32:11.770Z,21.44
2023-04-22T16:34:38.878Z,21.36
2023-04-22T16:37:06.316Z,21.35
2023-04-22T16:39:33.482Z,21.05
2023-04-22T16:42:00.379Z,20.96
2023-04-22T16:44:27.158Z,20.79
2023-04-22T16:46:54.097Z,20.51
2023-04-22T16:49:21.490Z,20.46
2023-04-22T16:51:48.782Z,20.36
2023-04-22T16:54:15.728Z,20.31
2023-04-22T16:56:42.464Z,20.19
2023-04-22T16:59:09.520Z,20.15
2023-04-22T17:01:36.621Z,20.11
2023-04-22T17:04:03.602Z,19.94
2023-04-22T17:06:30.515Z,19.82
2023-04-22T17:08:57.471Z,19.89
2023-04-22T17:11:24.359Z,19.86
2023-04-22T17:13:51.647Z,19.91
2023-04-22T17:16:18.964Z,19.96
2023-04-22T17:18:47.212Z,19.81
2023-04-22T17:21:14.419Z,19.79
2023-04-22T17:23:41.231Z,19.78
2023-04-22T17:26:08.250Z,19.75
2023-04-22T17:28:35.406Z,19.80
2023-04-22T17:31:03.073Z,19.78
2023-04-22T17:33:30.537Z,19.69
2023-04-22T17:35:57.247Z,19.68
2023-04-22T17:38:23.976Z,19.47
2023-04-22T17:40:50.955Z,19.45
2023-04-22T17:43:18.132Z,19.47
2023-04-22T17:45:45.083Z,19.51
2023-04-22T17:48:12.002Z,19.45
2023-04-22T17:50:39.375Z,19.47
2023-04-22T17:53:06.371Z,19.35
2023-04-22T17:55:35.467Z,19.40
2023-04-22T17:58:03.465Z,19.39
2023-04-22T18:00:31.117Z,19.30
2023-04-22T18:02:58.357Z,19.36
2023-04-22T18:05:27.315Z,19.20
2023-04-22T18:08:03.138Z,19.20
2023-04-22T18:10:31.196Z,19.16
2023-04-22T18:12:58.221Z,19.02
2023-04-22T18:15:25.166Z,19.14
2023-04-22T18:17:52.083Z,19.14
2023-04-22T18:20:20.133Z,19.09
2023-04-22T18:22:48.308Z,19.08
2023-04-22T18:25:15.399Z,19.02
2023-04-22T18:27:42.251Z,18.99
2023-04-22T18:30:09.761Z,18.85
2023-04-22T18:32:37.509Z,18.86
2023-04-22T18:35:04.975Z,18.80
2023-04-22T18:37:32.961Z,18.78
2023-04-22T18:39:59.746Z,18.69
2023-04-22T18:42:26.773Z,18.78
2023-04-22T18:44:53.954Z,18.72
2023-04-22T18:47:21.110Z,18.73
2023-04-22T18:49:47.845Z,18.69
2023-04-22T18:52:16.324Z,18.68
2023-04-22T18:54:43.553Z,18.61
2023-04-22T18:57:10.730Z,18.57
2023-04-22T18:59:37.565Z,18.54
2023-04-22T19:02:06.856Z,18.55
2023-04-22T19:04:33.898Z,18.55
2023-04-22T19:07:01.643Z,18.52
2023-04-22T19:09:29.704Z,18.46
2023-04-22T19:11:56.836Z,18.35
2023-04-22T19:14:23.670Z,18.33
2023-04-22T19:16:50.667Z,18.32
2023-04-22T19:19:18.815Z,18.29
2023-04-22T19:21:45.923Z,18.28
2023-04-22T19:24:14.625Z,18.25
2023-04-22T19:26:41.664Z,18.24
2023-04-22T19:29:08.622Z,18.24
2023-04-22T19:31:35.556Z,18.14
2023-04-22T19:34:03.147Z,18.12
2023-04-22T19:36:29.986Z,18.07
2023-04-22T19:38:57.088Z,18.08
2023-04-22T19:41:24.643Z,18.05
2023-04-22T19:43:51.754Z,18.03
2023-04-22T19:46:18.643Z,17.94
2023-04-22T19:48:45.689Z,17.92
2023-04-22T19:51:13.019Z,17.89
2023-04-22T19:53:41.655Z,17.84
2023-04-22T19:56:11.579Z,17.74
2023-04-22T19:58:39.392Z,17.74
2023-04-22T20:01:06.500Z,17.71
2023-04-22T20:03:34.417Z,17.64
2023-04-22T20:06:01.769Z,17.64
2023-04-22T20:08:29.614Z,17.65
2023-04-22T20:10:56.653Z,17.66
2023-04-22T20:13:23.564Z,17.64
2023-04-22T20:15:50.859Z,17.62
2023-04-22T20:18:18.034Z,17.61
2023-04-22T20:20:46.984Z,17.57
2023-04-22T20:23:15.156Z,17.62
2023-04-22T20:25:44.446Z,17.56
2023-04-22T20:28:11.316Z,17.49
2023-04-22T20:30:38.572Z,17.47
2023-04-22T20:33:06.002Z,17.49
2023-04-22T20:35:33.024Z,17.51
2023-04-22T20:38:01.177Z,17.39
2023-04-22T20:40:29.275Z,17.29
2023-04-22T20:42:57.682Z,17.32
2023-04-22T20:45:24.791Z,17.25
2023-04-22T20:47:51.884Z,17.34
2023-04-22T20:50:19.491Z,17.32
2023-04-22T20:52:47.033Z,17.21
2023-04-22T20:55:13.713Z,17.26
2023-04-22T20:57:41.482Z,17.19
2023-04-22T21:00:10.404Z,17.21
2023-04-22T21:02:38.163Z,17.16
2023-04-22T21:05:05.914Z,17.14
2023-04-22T21:07:33.183Z,17.16
2023-04-22T21:10:00.435Z,17.19
2023-04-22T21:12:27.673Z,17.03
2023-04-22T21:14:55.261Z,16.94
2023-04-22T21:17:25.983Z,16.93
2023-04-22T21:19:54.926Z,16.94
2023-04-22T21:22:24.179Z,17.00
2023-04-22T21:24:52.402Z,16.85
2023-04-22T21:27:20.550Z,16.90
2023-04-22T21:29:48.728Z,16.87
2023-04-22T21:32:16.558Z,16.82
2023-04-22T21:34:44.179Z,16.85
2023-04-22T21:37:11.673Z,16.72
2023-04-22T21:39:39.095Z,16.85
2023-04-22T21:42:09.125Z,16.87
2023-04-22T21:44:37.446Z,16.82
2023-04-22T21:47:05.320Z,16.81
2023-04-22T21:49:32.039Z,16.81
2023-04-22T21:51:59.707Z,16.77
2023-04-22T21:54:27.117Z,16.74
2023-04-22T21:56:53.952Z,16.69
2023-04-22T21:59:20.708Z,16.70
2023-04-22T22:01:47.684Z,16.71
2023-04-22T22:04:16.017Z,16.72
2023-04-22T22:06:43.650Z,16.70
2023-04-22T22:09:11.884Z,16.72
2023-04-22T22:11:38.817Z,16.70
2023-04-22T22:14:05.774Z,16.67
2023-04-22T22:16:33.615Z,16.56
2023-04-22T22:19:04.839Z,16.57
2023-04-22T22:21:33.369Z,16.47
2023-04-22T22:24:00.763Z,16.42
2023-04-22T22:26:28.463Z,16.40
2023-04-22T22:28:55.537Z,16.33
2023-04-22T22:31:22.307Z,16.28
2023-04-22T22:33:49.245Z,16.25
2023-04-22T22:36:16.874Z,16.16
2023-04-22T22:38:43.909Z,16.18
2023-04-22T22:41:10.790Z,16.14
2023-04-22T22:43:37.495Z,16.03
2023-04-22T22:46:04.572Z,16.05
2023-04-22T22:48:31.404Z,15.94
2023-04-22T22:50:58.480Z,15.96
2023-04-22T22:53:25.167Z,16.04
2023-04-22T22:55:52.316Z,16.03
2023-04-22T22:58:19.031Z,15.91
2023-04-22T23:00:45.781Z,15.88
2023-04-22T23:03:12.887Z,15.92
2023-04-22T23:05:39.852Z,15.90
2023-04-22T23:08:07.151Z,15.93
2023-04-22T23:10:33.871Z,15.91
2023-04-22T23:13:00.652Z,15.98
2023-04-22T23:15:27.358Z,15.83
2023-04-22T23:17:54.132Z,15.94
2023-04-22T23:20:22.406Z,15.96
2023-04-22T23:22:50.002Z,15.91
2023-04-22T23:25:17.325Z,15.90
2023-04-22T23:27:44.485Z,15.82
2023-04-22T23:30:11.745Z,15.85
2023-04-22T23:32:40.716Z,15.79
2023-04-22T23:35:08.730Z,15.85
2023-04-22T23:37:37.946Z,15.88
2023-04-22T23:40:06.999Z,15.78
2023-04-22T23:42:34.040Z,15.86
2023-04-22T23:45:00.806Z,15.79
2023-04-22T23:47:27.658Z,15.80
2023-04-22T23:49:54.393Z,15.81
2023-04-22T23:52:21.178Z,15.81
2023-04-22T23:54:48.557Z,15.74
2023-04-22T23:57:16.366Z,15.75
2023-04-22T23:59:43.738Z,15.82
